sensor_id;sensor_type;location;lat;lon;timestamp;temperature;humidity
14182;DHT22;7171;50.936;6.764;2022-09-09T00:01:47;18.30;99.90
14182;DHT22;7171;50.936;6.764;2022-09-09T00:04:24;18.30;99.90
14182;DHT22;7171;50.936;6.764;2022-09-09T00:06:59;18.30;99.90
14182;DHT22;7171;50.936;6.764;2022-09-09T00:09:31;18.30;99.90
14182;DHT22;7171;50.936;6.764;2022-09-09T00:12:10;18.30;99.90
14182;DHT22;7171;50.936;6.764;2022-09-09T00:14:43;18.30;99.90
14182;DHT22;7171;50.936;6.764;2022-09-09T00:17:17;18.30;99.90
14182;DHT22;7171;50.936;6.764;2022-09-09T00:19:52;18.30;99.90
14182;DHT22;7171;50.936;6.764;2022-09-09T00:22:23;18.30;99.90
14182;DHT22;7171;50.936;6.764;2022-09-09T00:24:52;18.30;99.90
14182;DHT22;7171;50.936;6.764;2022-09-09T00:27:25;18.30;99.90
14182;DHT22;7171;50.936;6.764;2022-09-09T00:30:01;18.30;99.90
14182;DHT22;7171;50.936;6.764;2022-09-09T00:32:30;18.30;99.90
14182;DHT22;7171;50.936;6.764;2022-09-09T00:35:02;18.30;99.90
14182;DHT22;7171;50.936;6.764;2022-09-09T00:37:29;18.30;99.90
14182;DHT22;7171;50.936;6.764;2022-09-09T00:40:02;18.30;99.90
14182;DHT22;7171;50.936;6.764;2022-09-09T00:42:39;18.40;99.90
14182;DHT22;7171;50.936;6.764;2022-09-09T00:45:19;18.40;99.90
14182;DHT22;7171;50.936;6.764;2022-09-09T00:47:52;18.40;99.90
14182;DHT22;7171;50.936;6.764;2022-09-09T00:50:35;18.30;99.90
14182;DHT22;7171;50.936;6.764;2022-09-09T00:53:15;18.30;99.90
14182;DHT22;7171;50.936;6.764;2022-09-09T00:55:49;18.30;99.90
14182;DHT22;7171;50.936;6.764;2022-09-09T00:58:17;18.30;99.90
14182;DHT22;7171;50.936;6.764;2022-09-09T01:00:47;18.30;99.90
14182;DHT22;7171;50.936;6.764;2022-09-09T01:03:28;18.30;99.90
14182;DHT22;7171;50.936;6.764;2022-09-09T01:06:12;18.30;99.90
14182;DHT22;7171;50.936;6.764;2022-09-09T01:08:56;18.20;99.90
14182;DHT22;7171;50.936;6.764;2022-09-09T01:11:26;18.20;99.90
14182;DHT22;7171;50.936;6.764;2022-09-09T01:13:59;18.20;99.90
14182;DHT22;7171;50.936;6.764;2022-09-09T01:16:28;18.20;99.90
14182;DHT22;7171;50.936;6.764;2022-09-09T01:18:58;18.20;99.90
14182;DHT22;7171;50.936;6.764;2022-09-09T01:21:35;18.10;99.90
14182;DHT22;7171;50.936;6.764;2022-09-09T01:24:22;18.10;99.90
14182;DHT22;7171;50.936;6.764;2022-09-09T01:26:55;18.10;99.90
14182;DHT22;7171;50.936;6.764;2022-09-09T01:29:23;18.00;99.90
14182;DHT22;7171;50.936;6.764;2022-09-09T01:31:54;18.00;99.90
14182;DHT22;7171;50.936;6.764;2022-09-09T01:34:23;17.90;99.90
14182;DHT22;7171;50.936;6.764;2022-09-09T01:36:55;18.00;99.90
14182;DHT22;7171;50.936;6.764;2022-09-09T01:39:24;18.00;99.90
14182;DHT22;7171;50.936;6.764;2022-09-09T01:41:53;17.90;99.90
14182;DHT22;7171;50.936;6.764;2022-09-09T01:44:20;17.90;99.90
14182;DHT22;7171;50.936;6.764;2022-09-09T01:46:47;17.90;99.90
14182;DHT22;7171;50.936;6.764;2022-09-09T01:51:43;17.90;99.90
14182;DHT22;7171;50.936;6.764;2022-09-09T01:54:12;17.70;99.90
14182;DHT22;7171;50.936;6.764;2022-09-09T01:56:47;17.80;99.90
14182;DHT22;7171;50.936;6.764;2022-09-09T01:59:27;17.80;99.90
14182;DHT22;7171;50.936;6.764;2022-09-09T02:04:38;17.90;99.90
14182;DHT22;7171;50.936;6.764;2022-09-09T02:09:36;17.80;99.90
14182;DHT22;7171;50.936;6.764;2022-09-09T02:12:08;17.80;99.90
14182;DHT22;7171;50.936;6.764;2022-09-09T02:14:41;17.80;99.90
14182;DHT22;7171;50.936;6.764;2022-09-09T02:17:10;17.90;99.90
14182;DHT22;7171;50.936;6.764;2022-09-09T02:19:40;17.90;99.90
14182;DHT22;7171;50.936;6.764;2022-09-09T02:22:09;17.90;99.90
14182;DHT22;7171;50.936;6.764;2022-09-09T02:24:39;17.90;99.90
14182;DHT22;7171;50.936;6.764;2022-09-09T02:27:08;18.00;99.90
14182;DHT22;7171;50.936;6.764;2022-09-09T02:29:38;18.00;99.90
14182;DHT22;7171;50.936;6.764;2022-09-09T02:32:09;17.90;99.90
14182;DHT22;7171;50.936;6.764;2022-09-09T02:34:42;17.90;99.90
14182;DHT22;7171;50.936;6.764;2022-09-09T02:37:11;18.10;99.90
14182;DHT22;7171;50.936;6.764;2022-09-09T02:39:38;17.80;99.90
14182;DHT22;7171;50.936;6.764;2022-09-09T02:42:05;18.00;99.90
14182;DHT22;7171;50.936;6.764;2022-09-09T02:44:32;18.00;99.90
14182;DHT22;7171;50.936;6.764;2022-09-09T02:47:13;18.00;99.90
14182;DHT22;7171;50.936;6.764;2022-09-09T02:49:51;17.90;99.90
14182;DHT22;7171;50.936;6.764;2022-09-09T02:52:32;17.90;99.90
14182;DHT22;7171;50.936;6.764;2022-09-09T02:55:07;17.90;99.90
14182;DHT22;7171;50.936;6.764;2022-09-09T02:57:35;17.90;99.90
14182;DHT22;7171;50.936;6.764;2022-09-09T03:00:03;18.10;99.90
14182;DHT22;7171;50.936;6.764;2022-09-09T03:02:32;18.00;99.90
14182;DHT22;7171;50.936;6.764;2022-09-09T03:04:58;18.10;99.90
14182;DHT22;7171;50.936;6.764;2022-09-09T03:07:25;18.00;99.90
14182;DHT22;7171;50.936;6.764;2022-09-09T03:09:52;18.00;99.90
14182;DHT22;7171;50.936;6.764;2022-09-09T03:12:20;18.00;99.90
14182;DHT22;7171;50.936;6.764;2022-09-09T03:14:47;18.00;99.90
14182;DHT22;7171;50.936;6.764;2022-09-09T03:17:13;18.20;99.90
14182;DHT22;7171;50.936;6.764;2022-09-09T03:19:41;18.10;99.90
14182;DHT22;7171;50.936;6.764;2022-09-09T03:22:09;18.10;99.90
14182;DHT22;7171;50.936;6.764;2022-09-09T03:24:36;18.10;99.90
14182;DHT22;7171;50.936;6.764;2022-09-09T03:27:03;18.10;99.90
14182;DHT22;7171;50.936;6.764;2022-09-09T03:29:30;18.10;99.90
14182;DHT22;7171;50.936;6.764;2022-09-09T03:31:58;18.20;99.90
14182;DHT22;7171;50.936;6.764;2022-09-09T03:34:25;18.20;99.90
14182;DHT22;7171;50.936;6.764;2022-09-09T03:36:53;18.10;99.90
14182;DHT22;7171;50.936;6.764;2022-09-09T03:39:20;18.20;99.90
14182;DHT22;7171;50.936;6.764;2022-09-09T03:41:47;18.20;99.90
14182;DHT22;7171;50.936;6.764;2022-09-09T03:44:14;18.20;99.90
14182;DHT22;7171;50.936;6.764;2022-09-09T03:46:41;18.20;99.90
14182;DHT22;7171;50.936;6.764;2022-09-09T03:49:08;18.30;99.90
14182;DHT22;7171;50.936;6.764;2022-09-09T03:51:35;18.20;99.90
14182;DHT22;7171;50.936;6.764;2022-09-09T03:54:05;18.20;99.90
14182;DHT22;7171;50.936;6.764;2022-09-09T03:56:33;18.20;99.90
14182;DHT22;7171;50.936;6.764;2022-09-09T03:59:00;18.30;99.90
14182;DHT22;7171;50.936;6.764;2022-09-09T04:01:27;18.20;99.90
14182;DHT22;7171;50.936;6.764;2022-09-09T04:03:54;18.30;99.90
14182;DHT22;7171;50.936;6.764;2022-09-09T04:06:24;18.30;99.90
14182;DHT22;7171;50.936;6.764;2022-09-09T04:08:51;18.30;99.90
14182;DHT22;7171;50.936;6.764;2022-09-09T04:11:19;18.30;99.90
14182;DHT22;7171;50.936;6.764;2022-09-09T04:13:46;18.30;99.90
14182;DHT22;7171;50.936;6.764;2022-09-09T04:16:13;18.30;99.90
14182;DHT22;7171;50.936;6.764;2022-09-09T04:18:40;18.30;99.90
14182;DHT22;7171;50.936;6.764;2022-09-09T04:21:07;18.30;99.90
14182;DHT22;7171;50.936;6.764;2022-09-09T04:23:35;18.30;99.90
14182;DHT22;7171;50.936;6.764;2022-09-09T04:26:03;18.30;99.90
14182;DHT22;7171;50.936;6.764;2022-09-09T04:28:33;18.30;99.90
14182;DHT22;7171;50.936;6.764;2022-09-09T04:31:04;18.30;99.90
14182;DHT22;7171;50.936;6.764;2022-09-09T04:33:31;18.30;99.90
14182;DHT22;7171;50.936;6.764;2022-09-09T04:35:58;18.40;99.90
14182;DHT22;7171;50.936;6.764;2022-09-09T04:38:25;18.40;99.90
14182;DHT22;7171;50.936;6.764;2022-09-09T04:40:52;18.40;99.90
14182;DHT22;7171;50.936;6.764;2022-09-09T04:43:20;18.40;99.90
14182;DHT22;7171;50.936;6.764;2022-09-09T04:45:50;18.40;99.90
14182;DHT22;7171;50.936;6.764;2022-09-09T04:48:17;18.40;99.90
14182;DHT22;7171;50.936;6.764;2022-09-09T04:50:52;18.40;99.90
14182;DHT22;7171;50.936;6.764;2022-09-09T04:53:19;18.50;99.90
14182;DHT22;7171;50.936;6.764;2022-09-09T04:55:47;18.40;99.90
14182;DHT22;7171;50.936;6.764;2022-09-09T04:58:15;18.40;99.90
14182;DHT22;7171;50.936;6.764;2022-09-09T05:00:41;18.40;99.90
14182;DHT22;7171;50.936;6.764;2022-09-09T05:03:09;18.70;99.90
14182;DHT22;7171;50.936;6.764;2022-09-09T05:05:37;18.60;99.90
14182;DHT22;7171;50.936;6.764;2022-09-09T05:08:04;18.50;99.90
14182;DHT22;7171;50.936;6.764;2022-09-09T05:10:32;18.50;99.90
14182;DHT22;7171;50.936;6.764;2022-09-09T05:12:59;18.70;99.90
14182;DHT22;7171;50.936;6.764;2022-09-09T05:15:25;18.50;99.90
14182;DHT22;7171;50.936;6.764;2022-09-09T05:17:52;18.50;99.90
14182;DHT22;7171;50.936;6.764;2022-09-09T05:20:24;18.50;99.90
14182;DHT22;7171;50.936;6.764;2022-09-09T05:22:52;18.50;99.90
14182;DHT22;7171;50.936;6.764;2022-09-09T05:25:19;18.50;99.90
14182;DHT22;7171;50.936;6.764;2022-09-09T05:27:47;18.40;99.90
14182;DHT22;7171;50.936;6.764;2022-09-09T05:30:15;18.60;99.90
14182;DHT22;7171;50.936;6.764;2022-09-09T05:32:42;18.40;99.90
14182;DHT22;7171;50.936;6.764;2022-09-09T05:35:08;18.50;99.90
14182;DHT22;7171;50.936;6.764;2022-09-09T05:37:36;18.60;99.90
14182;DHT22;7171;50.936;6.764;2022-09-09T05:40:04;18.50;99.90
14182;DHT22;7171;50.936;6.764;2022-09-09T05:42:31;18.50;99.90
14182;DHT22;7171;50.936;6.764;2022-09-09T05:44:58;18.60;99.90
14182;DHT22;7171;50.936;6.764;2022-09-09T05:47:24;18.50;99.90
14182;DHT22;7171;50.936;6.764;2022-09-09T05:49:53;18.50;99.90
14182;DHT22;7171;50.936;6.764;2022-09-09T05:52:20;18.60;99.90
14182;DHT22;7171;50.936;6.764;2022-09-09T05:54:49;18.60;99.90
14182;DHT22;7171;50.936;6.764;2022-09-09T05:57:16;18.60;99.90
14182;DHT22;7171;50.936;6.764;2022-09-09T05:59:44;18.70;99.90
14182;DHT22;7171;50.936;6.764;2022-09-09T06:02:11;18.70;99.90
14182;DHT22;7171;50.936;6.764;2022-09-09T06:04:39;18.60;99.90
14182;DHT22;7171;50.936;6.764;2022-09-09T06:07:05;18.70;99.90
14182;DHT22;7171;50.936;6.764;2022-09-09T06:09:32;18.70;99.90
14182;DHT22;7171;50.936;6.764;2022-09-09T06:12:00;18.60;99.90
14182;DHT22;7171;50.936;6.764;2022-09-09T06:14:27;18.60;99.90
14182;DHT22;7171;50.936;6.764;2022-09-09T06:16:54;18.70;99.90
14182;DHT22;7171;50.936;6.764;2022-09-09T06:19:22;18.70;99.90
14182;DHT22;7171;50.936;6.764;2022-09-09T06:21:49;18.70;99.90
14182;DHT22;7171;50.936;6.764;2022-09-09T06:24:16;18.60;99.90
14182;DHT22;7171;50.936;6.764;2022-09-09T06:26:44;18.70;99.90
14182;DHT22;7171;50.936;6.764;2022-09-09T06:29:13;18.70;99.90
14182;DHT22;7171;50.936;6.764;2022-09-09T06:31:39;19.20;99.90
14182;DHT22;7171;50.936;6.764;2022-09-09T06:34:08;18.50;99.90
14182;DHT22;7171;50.936;6.764;2022-09-09T06:46:28;18.60;99.90
14182;DHT22;7171;50.936;6.764;2022-09-09T06:48:57;18.60;99.90
14182;DHT22;7171;50.936;6.764;2022-09-09T06:51:26;18.60;99.90
14182;DHT22;7171;50.936;6.764;2022-09-09T06:56:23;18.70;99.90
14182;DHT22;7171;50.936;6.764;2022-09-09T06:58:52;18.60;99.90
14182;DHT22;7171;50.936;6.764;2022-09-09T07:01:21;18.70;99.90
14182;DHT22;7171;50.936;6.764;2022-09-09T07:03:50;18.70;99.90
14182;DHT22;7171;50.936;6.764;2022-09-09T07:06:19;18.80;99.90
14182;DHT22;7171;50.936;6.764;2022-09-09T07:08:51;18.80;99.90
14182;DHT22;7171;50.936;6.764;2022-09-09T07:11:19;18.80;99.90
14182;DHT22;7171;50.936;6.764;2022-09-09T07:16:15;18.90;99.90
14182;DHT22;7171;50.936;6.764;2022-09-09T07:18:43;19.00;99.90
14182;DHT22;7171;50.936;6.764;2022-09-09T07:21:12;19.10;99.90
14182;DHT22;7171;50.936;6.764;2022-09-09T07:23:40;18.90;99.90
14182;DHT22;7171;50.936;6.764;2022-09-09T07:26:10;18.80;99.90
14182;DHT22;7171;50.936;6.764;2022-09-09T07:31:05;19.10;99.90
14182;DHT22;7171;50.936;6.764;2022-09-09T07:33:33;19.30;99.90
14182;DHT22;7171;50.936;6.764;2022-09-09T07:36:05;19.30;99.90
14182;DHT22;7171;50.936;6.764;2022-09-09T07:38:38;19.30;99.90
14182;DHT22;7171;50.936;6.764;2022-09-09T08:03:25;19.70;99.90
14182;DHT22;7171;50.936;6.764;2022-09-09T08:05:52;20.00;99.90
14182;DHT22;7171;50.936;6.764;2022-09-09T08:08:19;19.90;99.90
14182;DHT22;7171;50.936;6.764;2022-09-09T08:10:47;19.90;99.90
14182;DHT22;7171;50.936;6.764;2022-09-09T08:13:13;19.90;99.90
14182;DHT22;7171;50.936;6.764;2022-09-09T08:15:41;20.00;99.90
14182;DHT22;7171;50.936;6.764;2022-09-09T08:18:08;20.00;99.90
14182;DHT22;7171;50.936;6.764;2022-09-09T08:20:36;20.00;99.90
14182;DHT22;7171;50.936;6.764;2022-09-09T08:23:03;20.00;99.90
14182;DHT22;7171;50.936;6.764;2022-09-09T08:25:31;20.10;99.90
14182;DHT22;7171;50.936;6.764;2022-09-09T08:28:01;20.10;99.90
14182;DHT22;7171;50.936;6.764;2022-09-09T08:30:29;20.10;99.90
14182;DHT22;7171;50.936;6.764;2022-09-09T08:35:22;20.20;99.90
14182;DHT22;7171;50.936;6.764;2022-09-09T08:37:53;20.30;99.90
14182;DHT22;7171;50.936;6.764;2022-09-09T08:40:26;20.30;99.90
14182;DHT22;7171;50.936;6.764;2022-09-09T08:42:56;20.30;99.90
14182;DHT22;7171;50.936;6.764;2022-09-09T08:45:35;20.30;99.90
14182;DHT22;7171;50.936;6.764;2022-09-09T08:48:16;20.40;99.90
14182;DHT22;7171;50.936;6.764;2022-09-09T08:50:49;20.40;99.90
14182;DHT22;7171;50.936;6.764;2022-09-09T08:53:18;20.40;99.90
14182;DHT22;7171;50.936;6.764;2022-09-09T08:55:50;20.40;99.90
14182;DHT22;7171;50.936;6.764;2022-09-09T08:58:19;20.40;99.90
14182;DHT22;7171;50.936;6.764;2022-09-09T09:01:01;20.50;99.90
14182;DHT22;7171;50.936;6.764;2022-09-09T09:03:36;20.50;99.90
14182;DHT22;7171;50.936;6.764;2022-09-09T09:06:26;20.50;99.90
14182;DHT22;7171;50.936;6.764;2022-09-09T09:09:06;20.50;99.90
14182;DHT22;7171;50.936;6.764;2022-09-09T09:11:35;20.60;99.90
14182;DHT22;7171;50.936;6.764;2022-09-09T09:14:07;20.60;99.90
14182;DHT22;7171;50.936;6.764;2022-09-09T09:16:43;20.60;99.90
14182;DHT22;7171;50.936;6.764;2022-09-09T09:19:14;20.60;99.90
14182;DHT22;7171;50.936;6.764;2022-09-09T09:21:44;20.60;99.90
14182;DHT22;7171;50.936;6.764;2022-09-09T09:24:18;20.60;99.90
14182;DHT22;7171;50.936;6.764;2022-09-09T09:26:45;20.60;99.90
14182;DHT22;7171;50.936;6.764;2022-09-09T09:29:14;20.60;99.90
14182;DHT22;7171;50.936;6.764;2022-09-09T09:31:45;20.60;99.90
14182;DHT22;7171;50.936;6.764;2022-09-09T09:34:13;20.60;99.90
14182;DHT22;7171;50.936;6.764;2022-09-09T09:36:42;20.60;99.90
14182;DHT22;7171;50.936;6.764;2022-09-09T09:39:22;20.60;99.90
14182;DHT22;7171;50.936;6.764;2022-09-09T09:41:49;20.50;99.90
14182;DHT22;7171;50.936;6.764;2022-09-09T09:44:25;20.50;99.90
14182;DHT22;7171;50.936;6.764;2022-09-09T09:47:06;20.50;99.90
14182;DHT22;7171;50.936;6.764;2022-09-09T09:49:33;20.50;99.90
14182;DHT22;7171;50.936;6.764;2022-09-09T09:52:01;20.50;99.90
14182;DHT22;7171;50.936;6.764;2022-09-09T09:54:29;20.50;99.90
14182;DHT22;7171;50.936;6.764;2022-09-09T09:57:08;20.60;99.90
14182;DHT22;7171;50.936;6.764;2022-09-09T09:59:36;20.60;99.90
14182;DHT22;7171;50.936;6.764;2022-09-09T10:02:19;20.60;99.90
14182;DHT22;7171;50.936;6.764;2022-09-09T10:05:00;20.70;99.90
14182;DHT22;7171;50.936;6.764;2022-09-09T10:07:27;20.70;99.90
14182;DHT22;7171;50.936;6.764;2022-09-09T10:09:56;20.70;99.90
14182;DHT22;7171;50.936;6.764;2022-09-09T10:12:33;20.80;99.90
14182;DHT22;7171;50.936;6.764;2022-09-09T10:15:10;20.80;99.90
14182;DHT22;7171;50.936;6.764;2022-09-09T10:17:53;20.80;99.90
14182;DHT22;7171;50.936;6.764;2022-09-09T10:20:32;20.90;99.90
14182;DHT22;7171;50.936;6.764;2022-09-09T10:23:09;20.90;99.90
14182;DHT22;7171;50.936;6.764;2022-09-09T10:25:55;20.90;99.90
14182;DHT22;7171;50.936;6.764;2022-09-09T10:28:33;20.90;99.90
14182;DHT22;7171;50.936;6.764;2022-09-09T10:31:12;20.90;99.90
14182;DHT22;7171;50.936;6.764;2022-09-09T10:33:49;20.90;99.90
14182;DHT22;7171;50.936;6.764;2022-09-09T10:36:20;20.90;99.90
14182;DHT22;7171;50.936;6.764;2022-09-09T10:38:50;20.90;99.90
14182;DHT22;7171;50.936;6.764;2022-09-09T10:41:21;20.90;99.90
14182;DHT22;7171;50.936;6.764;2022-09-09T10:44:10;21.00;99.90
14182;DHT22;7171;50.936;6.764;2022-09-09T10:49:58;21.00;99.90
14182;DHT22;7171;50.936;6.764;2022-09-09T10:52:31;21.10;99.90
14182;DHT22;7171;50.936;6.764;2022-09-09T10:55:02;21.20;99.90
14182;DHT22;7171;50.936;6.764;2022-09-09T10:57:37;21.20;99.90
14182;DHT22;7171;50.936;6.764;2022-09-09T11:00:13;21.20;99.90
14182;DHT22;7171;50.936;6.764;2022-09-09T11:02:41;21.30;99.90
14182;DHT22;7171;50.936;6.764;2022-09-09T11:05:16;21.40;99.90
14182;DHT22;7171;50.936;6.764;2022-09-09T11:07:48;21.40;99.90
14182;DHT22;7171;50.936;6.764;2022-09-09T11:10:22;21.50;99.90
14182;DHT22;7171;50.936;6.764;2022-09-09T11:15:22;21.50;99.90
14182;DHT22;7171;50.936;6.764;2022-09-09T11:17:53;21.40;99.90
14182;DHT22;7171;50.936;6.764;2022-09-09T11:20:23;21.40;99.90
14182;DHT22;7171;50.936;6.764;2022-09-09T11:22:55;21.40;99.90
14182;DHT22;7171;50.936;6.764;2022-09-09T11:25:28;21.40;99.90
14182;DHT22;7171;50.936;6.764;2022-09-09T11:30:55;21.30;99.90
14182;DHT22;7171;50.936;6.764;2022-09-09T11:36:43;21.30;99.90
14182;DHT22;7171;50.936;6.764;2022-09-09T11:42:17;21.20;99.90
14182;DHT22;7171;50.936;6.764;2022-09-09T11:44:45;21.20;99.90
14182;DHT22;7171;50.936;6.764;2022-09-09T11:47:22;21.20;99.90
14182;DHT22;7171;50.936;6.764;2022-09-09T11:49:54;21.20;99.90
14182;DHT22;7171;50.936;6.764;2022-09-09T11:52:34;21.10;99.90
14182;DHT22;7171;50.936;6.764;2022-09-09T11:55:08;21.10;99.90
14182;DHT22;7171;50.936;6.764;2022-09-09T11:57:39;21.10;99.90
14182;DHT22;7171;50.936;6.764;2022-09-09T12:02:49;21.10;99.90
14182;DHT22;7171;50.936;6.764;2022-09-09T12:05:16;21.10;99.90
14182;DHT22;7171;50.936;6.764;2022-09-09T12:07:51;21.00;99.90
14182;DHT22;7171;50.936;6.764;2022-09-09T12:10:23;21.00;99.90
14182;DHT22;7171;50.936;6.764;2022-09-09T12:12:51;21.10;99.90
14182;DHT22;7171;50.936;6.764;2022-09-09T12:15:22;21.10;99.90
14182;DHT22;7171;50.936;6.764;2022-09-09T12:17:52;21.10;99.90
14182;DHT22;7171;50.936;6.764;2022-09-09T12:20:22;21.10;99.90
14182;DHT22;7171;50.936;6.764;2022-09-09T12:23:13;21.20;99.90
14182;DHT22;7171;50.936;6.764;2022-09-09T12:25:58;21.10;99.90
14182;DHT22;7171;50.936;6.764;2022-09-09T12:28:39;21.20;99.90
14182;DHT22;7171;50.936;6.764;2022-09-09T12:31:12;21.10;99.90
14182;DHT22;7171;50.936;6.764;2022-09-09T12:33:44;21.10;99.90
14182;DHT22;7171;50.936;6.764;2022-09-09T12:36:15;21.10;99.90
14182;DHT22;7171;50.936;6.764;2022-09-09T12:38:44;21.10;99.90
14182;DHT22;7171;50.936;6.764;2022-09-09T12:41:19;21.00;99.90
14182;DHT22;7171;50.936;6.764;2022-09-09T12:43:46;20.90;99.90
14182;DHT22;7171;50.936;6.764;2022-09-09T12:46:21;20.70;99.90
14182;DHT22;7171;50.936;6.764;2022-09-09T12:48:49;20.60;99.90
14182;DHT22;7171;50.936;6.764;2022-09-09T12:51:23;20.60;99.90
14182;DHT22;7171;50.936;6.764;2022-09-09T12:53:52;20.60;99.90
14182;DHT22;7171;50.936;6.764;2022-09-09T12:56:21;20.60;99.90
14182;DHT22;7171;50.936;6.764;2022-09-09T12:58:51;20.60;99.90
14182;DHT22;7171;50.936;6.764;2022-09-09T13:01:22;20.60;99.90
14182;DHT22;7171;50.936;6.764;2022-09-09T13:03:49;20.60;99.90
14182;DHT22;7171;50.936;6.764;2022-09-09T13:06:20;20.70;99.90
14182;DHT22;7171;50.936;6.764;2022-09-09T13:08:48;20.60;99.90
14182;DHT22;7171;50.936;6.764;2022-09-09T13:11:18;20.70;99.90
14182;DHT22;7171;50.936;6.764;2022-09-09T13:13:51;20.60;99.90
14182;DHT22;7171;50.936;6.764;2022-09-09T13:16:20;20.60;99.90
14182;DHT22;7171;50.936;6.764;2022-09-09T13:21:16;20.60;99.90
14182;DHT22;7171;50.936;6.764;2022-09-09T13:23:48;20.60;99.90
14182;DHT22;7171;50.936;6.764;2022-09-09T13:26:25;20.60;99.90
14182;DHT22;7171;50.936;6.764;2022-09-09T13:28:53;20.70;99.90
14182;DHT22;7171;50.936;6.764;2022-09-09T13:31:22;20.70;99.90
14182;DHT22;7171;50.936;6.764;2022-09-09T13:33:49;20.70;99.90
14182;DHT22;7171;50.936;6.764;2022-09-09T13:36:27;20.80;99.90
14182;DHT22;7171;50.936;6.764;2022-09-09T13:38:56;20.80;99.90
14182;DHT22;7171;50.936;6.764;2022-09-09T13:44:02;20.90;99.90
14182;DHT22;7171;50.936;6.764;2022-09-09T13:46:32;20.90;99.90
14182;DHT22;7171;50.936;6.764;2022-09-09T13:49:01;21.00;99.90
14182;DHT22;7171;50.936;6.764;2022-09-09T13:51:33;21.00;99.90
14182;DHT22;7171;50.936;6.764;2022-09-09T13:54:02;21.00;99.90
14182;DHT22;7171;50.936;6.764;2022-09-09T13:56:31;21.00;99.90
14182;DHT22;7171;50.936;6.764;2022-09-09T13:58:58;21.00;99.90
14182;DHT22;7171;50.936;6.764;2022-09-09T14:01:25;21.00;99.90
14182;DHT22;7171;50.936;6.764;2022-09-09T14:03:53;21.10;99.90
14182;DHT22;7171;50.936;6.764;2022-09-09T14:06:19;21.00;99.90
14182;DHT22;7171;50.936;6.764;2022-09-09T14:08:47;21.00;99.90
14182;DHT22;7171;50.936;6.764;2022-09-09T14:11:14;21.00;99.90
14182;DHT22;7171;50.936;6.764;2022-09-09T14:13:42;21.00;99.90
14182;DHT22;7171;50.936;6.764;2022-09-09T14:16:09;20.90;99.90
14182;DHT22;7171;50.936;6.764;2022-09-09T14:18:36;20.70;99.90
14182;DHT22;7171;50.936;6.764;2022-09-09T14:21:04;20.40;99.90
14182;DHT22;7171;50.936;6.764;2022-09-09T14:23:31;20.10;99.90
14182;DHT22;7171;50.936;6.764;2022-09-09T14:25:58;19.90;99.90
14182;DHT22;7171;50.936;6.764;2022-09-09T14:28:24;19.60;99.90
14182;DHT22;7171;50.936;6.764;2022-09-09T14:30:53;19.40;99.90
14182;DHT22;7171;50.936;6.764;2022-09-09T14:33:20;19.20;99.90
14182;DHT22;7171;50.936;6.764;2022-09-09T14:35:46;19.10;99.90
14182;DHT22;7171;50.936;6.764;2022-09-09T14:38:14;18.90;99.90
14182;DHT22;7171;50.936;6.764;2022-09-09T14:40:40;18.80;99.90
14182;DHT22;7171;50.936;6.764;2022-09-09T14:43:10;18.70;99.90
14182;DHT22;7171;50.936;6.764;2022-09-09T14:45:37;18.70;99.90
14182;DHT22;7171;50.936;6.764;2022-09-09T14:48:05;18.60;99.90
14182;DHT22;7171;50.936;6.764;2022-09-09T14:50:32;18.50;99.90
14182;DHT22;7171;50.936;6.764;2022-09-09T14:53:00;18.50;99.90
14182;DHT22;7171;50.936;6.764;2022-09-09T14:55:27;18.50;99.90
14182;DHT22;7171;50.936;6.764;2022-09-09T14:57:54;18.50;99.90
14182;DHT22;7171;50.936;6.764;2022-09-09T15:00:21;18.60;99.90
14182;DHT22;7171;50.936;6.764;2022-09-09T15:02:48;18.60;99.90
14182;DHT22;7171;50.936;6.764;2022-09-09T15:05:19;18.60;99.90
14182;DHT22;7171;50.936;6.764;2022-09-09T15:07:46;18.60;99.90
14182;DHT22;7171;50.936;6.764;2022-09-09T15:10:14;18.60;99.90
14182;DHT22;7171;50.936;6.764;2022-09-09T15:12:42;18.70;99.90
14182;DHT22;7171;50.936;6.764;2022-09-09T15:15:10;18.60;99.90
14182;DHT22;7171;50.936;6.764;2022-09-09T15:17:38;18.80;99.90
14182;DHT22;7171;50.936;6.764;2022-09-09T15:20:05;18.60;99.90
14182;DHT22;7171;50.936;6.764;2022-09-09T15:22:34;18.60;99.90
14182;DHT22;7171;50.936;6.764;2022-09-09T15:25:02;18.60;99.90
14182;DHT22;7171;50.936;6.764;2022-09-09T15:27:29;18.60;99.90
14182;DHT22;7171;50.936;6.764;2022-09-09T15:29:56;18.70;99.90
14182;DHT22;7171;50.936;6.764;2022-09-09T15:32:23;18.60;99.90
14182;DHT22;7171;50.936;6.764;2022-09-09T15:34:50;18.60;99.90
14182;DHT22;7171;50.936;6.764;2022-09-09T15:37:18;18.80;99.90
14182;DHT22;7171;50.936;6.764;2022-09-09T15:39:46;18.70;99.90
14182;DHT22;7171;50.936;6.764;2022-09-09T15:42:14;18.80;99.90
14182;DHT22;7171;50.936;6.764;2022-09-09T15:47:10;18.90;99.90
14182;DHT22;7171;50.936;6.764;2022-09-09T15:49:38;18.90;99.90
14182;DHT22;7171;50.936;6.764;2022-09-09T15:54:35;19.00;99.90
14182;DHT22;7171;50.936;6.764;2022-09-09T15:57:07;19.00;99.90
14182;DHT22;7171;50.936;6.764;2022-09-09T15:59:34;19.10;99.90
14182;DHT22;7171;50.936;6.764;2022-09-09T16:02:01;18.90;99.90
14182;DHT22;7171;50.936;6.764;2022-09-09T16:06:58;19.40;99.90
14182;DHT22;7171;50.936;6.764;2022-09-09T16:09:25;19.40;99.90
14182;DHT22;7171;50.936;6.764;2022-09-09T16:11:52;19.50;99.90
14182;DHT22;7171;50.936;6.764;2022-09-09T16:14:23;19.40;99.90
14182;DHT22;7171;50.936;6.764;2022-09-09T16:16:50;19.30;99.90
14182;DHT22;7171;50.936;6.764;2022-09-09T16:19:17;19.30;99.90
14182;DHT22;7171;50.936;6.764;2022-09-09T16:21:46;19.20;99.90
14182;DHT22;7171;50.936;6.764;2022-09-09T16:24:14;19.10;99.90
14182;DHT22;7171;50.936;6.764;2022-09-09T16:26:44;19.10;99.90
14182;DHT22;7171;50.936;6.764;2022-09-09T16:29:11;19.00;99.90
14182;DHT22;7171;50.936;6.764;2022-09-09T16:31:40;18.90;99.90
14182;DHT22;7171;50.936;6.764;2022-09-09T16:36:37;18.80;99.90
14182;DHT22;7171;50.936;6.764;2022-09-09T16:39:05;18.80;99.90
14182;DHT22;7171;50.936;6.764;2022-09-09T16:41:33;18.80;99.90
14182;DHT22;7171;50.936;6.764;2022-09-09T16:44:01;18.80;99.90
14182;DHT22;7171;50.936;6.764;2022-09-09T16:46:30;18.80;99.90
14182;DHT22;7171;50.936;6.764;2022-09-09T16:49:00;18.80;99.90
14182;DHT22;7171;50.936;6.764;2022-09-09T16:51:29;18.80;99.90
14182;DHT22;7171;50.936;6.764;2022-09-09T16:53:58;18.80;99.90
14182;DHT22;7171;50.936;6.764;2022-09-09T16:56:27;18.80;99.90
14182;DHT22;7171;50.936;6.764;2022-09-09T16:58:56;18.80;99.90
14182;DHT22;7171;50.936;6.764;2022-09-09T17:01:24;18.80;99.90
14182;DHT22;7171;50.936;6.764;2022-09-09T17:03:53;18.80;99.90
14182;DHT22;7171;50.936;6.764;2022-09-09T17:06:22;18.80;99.90
14182;DHT22;7171;50.936;6.764;2022-09-09T17:11:20;18.80;99.90
14182;DHT22;7171;50.936;6.764;2022-09-09T17:13:49;18.80;99.90
14182;DHT22;7171;50.936;6.764;2022-09-09T17:16:18;18.80;99.90
14182;DHT22;7171;50.936;6.764;2022-09-09T17:18:45;18.80;99.90
14182;DHT22;7171;50.936;6.764;2022-09-09T17:21:14;18.80;99.90
14182;DHT22;7171;50.936;6.764;2022-09-09T17:23:42;18.80;99.90
14182;DHT22;7171;50.936;6.764;2022-09-09T17:28:39;18.80;99.90
14182;DHT22;7171;50.936;6.764;2022-09-09T17:31:07;18.80;99.90